createdAt,value
2022-12-31T00:01:32.911Z,99770.28
2022-12-31T00:04:35.896Z,99775.75
2022-12-31T00:10:42.191Z,99782.94
2022-12-31T00:13:46.539Z,99756.13
2022-12-31T00:16:49.298Z,99801.47
2022-12-31T00:19:53.392Z,99781.19
2022-12-31T00:22:56.143Z,99777.50
2022-12-31T00:26:05.383Z,99798.16
2022-12-31T00:29:08.143Z,99783.81
2022-12-31T00:32:10.936Z,99790.28
2022-12-31T00:35:13.760Z,99799.41
2022-12-31T00:38:16.469Z,99785.63
2022-12-31T00:41:21.946Z,99794.56
2022-12-31T00:44:24.688Z,99796.50
2022-12-31T00:47:27.440Z,99790.00
2022-12-31T00:50:30.148Z,99798.81
2022-12-31T00:53:33.176Z,99790.66
2022-12-31T00:56:37.238Z,99788.88
2022-12-31T00:59:40.053Z,99778.78
2022-12-31T01:02:42.892Z,99794.16
2022-12-31T01:05:46.096Z,99796.97
2022-12-31T01:08:50.482Z,99797.44
2022-12-31T01:11:55.171Z,99804.63
2022-12-31T01:14:58.212Z,99810.47
2022-12-31T01:18:03.272Z,99837.28
2022-12-31T01:21:07.620Z,99823.66
2022-12-31T01:24:11.508Z,99833.59
2022-12-31T01:27:15.561Z,99848.84
2022-12-31T01:30:18.369Z,99857.56
2022-12-31T01:33:21.139Z,99851.97
2022-12-31T01:36:26.742Z,99864.53
2022-12-31T01:39:29.497Z,99848.84
2022-12-31T01:42:33.567Z,99849.63
2022-12-31T01:45:36.354Z,99829.38
2022-12-31T01:48:39.331Z,99852.03
2022-12-31T01:51:44.497Z,99849.13
2022-12-31T01:54:56.858Z,99857.19
2022-12-31T01:58:06.248Z,99846.69
2022-12-31T02:01:11.139Z,99840.53
2022-12-31T02:04:16.349Z,99847.72
2022-12-31T02:07:23.175Z,99855.78
2022-12-31T02:10:26.658Z,99840.94
2022-12-31T02:13:31.026Z,99847.41
2022-12-31T02:16:47.265Z,99858.19
2022-12-31T02:20:20.102Z,99871.72
2022-12-31T02:23:44.912Z,99859.75
2022-12-31T02:27:11.484Z,99862.56
2022-12-31T02:30:18.076Z,99860.72
2022-12-31T02:33:31.592Z,99853.72
2022-12-31T02:36:37.936Z,99851.88
2022-12-31T02:39:47.593Z,99863.19
2022-12-31T02:42:55.286Z,99861.66
2022-12-31T02:46:14.397Z,99853.38
2022-12-31T02:49:23.782Z,99863.00
2022-12-31T02:52:44.387Z,99868.13
2022-12-31T02:56:02.023Z,99849.06
2022-12-31T02:59:29.258Z,99851.78
2022-12-31T03:03:01.886Z,99850.44
2022-12-31T03:06:07.272Z,99862.03
2022-12-31T03:09:13.702Z,99842.84
2022-12-31T03:12:34.904Z,99858.97
2022-12-31T03:15:38.938Z,99848.00
2022-12-31T03:19:02.061Z,99811.09
2022-12-31T03:22:22.249Z,99851.25
2022-12-31T03:25:39.147Z,99861.00
2022-12-31T03:28:47.621Z,99846.94
2022-12-31T03:31:55.796Z,99855.03
2022-12-31T03:34:59.851Z,99862.22
2022-12-31T03:38:03.316Z,99860.38
2022-12-31T03:41:06.313Z,99858.19
2022-12-31T03:44:11.133Z,99864.53
2022-12-31T03:47:14.361Z,99841.53
2022-12-31T03:50:22.791Z,99852.41
2022-12-31T03:53:25.480Z,99847.41
2022-12-31T03:56:31.227Z,99852.41
2022-12-31T03:59:33.967Z,99843.53
2022-12-31T04:02:37.295Z,99860.00
2022-12-31T04:05:42.241Z,99841.25
2022-12-31T04:08:47.053Z,99856.28
2022-12-31T04:11:49.793Z,99863.72
2022-12-31T04:14:59.030Z,99856.72
2022-12-31T04:18:01.968Z,99855.44
2022-12-31T04:21:07.119Z,99868.75
2022-12-31T04:24:12.292Z,99862.97
2022-12-31T04:27:15.715Z,99883.16
2022-12-31T04:30:21.480Z,99877.53
2022-12-31T04:33:25.664Z,99884.50
2022-12-31T04:36:32.355Z,99884.31
2022-12-31T04:39:35.036Z,99874.19
2022-12-31T04:42:38.472Z,99899.34
2022-12-31T04:45:41.153Z,99905.38
2022-12-31T04:48:44.077Z,99914.44
2022-12-31T04:51:48.138Z,99922.28
2022-12-31T04:54:51.174Z,99921.31
2022-12-31T04:57:55.758Z,99924.13
2022-12-31T05:00:58.601Z,99933.19
2022-12-31T05:04:02.033Z,99917.59
2022-12-31T05:07:08.344Z,99904.94
2022-12-31T05:10:13.159Z,99910.31
2022-12-31T05:13:16.884Z,99914.97
2022-12-31T05:16:19.816Z,99906.81
2022-12-31T05:19:28.557Z,99908.66
2022-12-31T05:22:35.768Z,99918.47
2022-12-31T05:25:42.653Z,99920.97
2022-12-31T05:28:45.818Z,99919.81
2022-12-31T05:31:48.443Z,99933.53
2022-12-31T05:34:55.111Z,99948.59
2022-12-31T05:38:02.786Z,99951.31
2022-12-31T05:41:07.368Z,99942.06
2022-12-31T05:44:13.179Z,99957.53
2022-12-31T05:47:16.596Z,99946.53
2022-12-31T05:50:19.474Z,99947.31
2022-12-31T05:53:23.730Z,99931.06
2022-12-31T05:56:26.352Z,99950.91
2022-12-31T05:59:31.246Z,99954.50
2022-12-31T06:02:36.208Z,99948.06
2022-12-31T06:05:43.214Z,99948.94
2022-12-31T06:08:50.325Z,99964.06
2022-12-31T06:11:52.947Z,99962.84
2022-12-31T06:14:59.791Z,99980.63
2022-12-31T06:18:06.029Z,99976.06
2022-12-31T06:21:15.856Z,99975.88
2022-12-31T06:24:20.023Z,99975.66
2022-12-31T06:27:25.848Z,99984.50
2022-12-31T06:30:28.538Z,99987.00
2022-12-31T06:33:31.390Z,99984.19
2022-12-31T06:36:34.840Z,99986.78
2022-12-31T06:39:41.833Z,99982.88
2022-12-31T06:42:44.896Z,99980.69
2022-12-31T06:45:53.791Z,99974.59
2022-12-31T06:48:59.269Z,99995.22
2022-12-31T06:52:02.451Z,100002.50
2022-12-31T06:55:08.436Z,99995.09
2022-12-31T06:58:13.454Z,99989.44
2022-12-31T07:01:33.825Z,99992.91
2022-12-31T07:05:21.470Z,99987.47
2022-12-31T07:08:37.980Z,100000.34
2022-12-31T07:11:55.909Z,100009.41
2022-12-31T07:15:16.864Z,100017.13
2022-12-31T07:18:38.019Z,100015.81
2022-12-31T07:21:42.295Z,100016.06
2022-12-31T07:24:47.904Z,100024.63
2022-12-31T07:28:05.319Z,100033.16
2022-12-31T07:31:14.244Z,100025.47
2022-12-31T07:34:23.339Z,100007.47
2022-12-31T07:37:38.712Z,100009.03
2022-12-31T07:40:57.530Z,100007.91
2022-12-31T07:44:11.049Z,100015.13
2022-12-31T07:47:21.992Z,100002.94
2022-12-31T07:50:25.495Z,100001.63
2022-12-31T07:53:28.820Z,100010.34
2022-12-31T07:56:31.763Z,100017.47
2022-12-31T07:59:48.357Z,100020.28
2022-12-31T08:03:12.688Z,100026.53
2022-12-31T08:06:25.600Z,100027.06
2022-12-31T08:09:44.104Z,100028.19
2022-12-31T08:12:50.355Z,100036.91
2022-12-31T08:16:03.596Z,100041.16
2022-12-31T08:19:07.124Z,100045.53
2022-12-31T08:22:26.058Z,100039.00
2022-12-31T08:25:38.782Z,100061.28
2022-12-31T08:28:57.152Z,100058.22
2022-12-31T08:32:06.988Z,100062.41
2022-12-31T08:35:22.659Z,100066.66
2022-12-31T08:38:35.635Z,100075.63
2022-12-31T08:41:43.334Z,100072.44
2022-12-31T08:44:53.831Z,100091.25
2022-12-31T08:48:04.420Z,100092.66
2022-12-31T08:51:13.769Z,100100.66
2022-12-31T08:54:19.947Z,100102.41
2022-12-31T08:57:37.120Z,100088.41
2022-12-31T09:00:41.555Z,100110.16
2022-12-31T09:04:01.074Z,100115.53
2022-12-31T09:07:05.590Z,100101.53
2022-12-31T09:10:19.125Z,100091.31
2022-12-31T09:13:37.086Z,100106.38
2022-12-31T09:16:49.593Z,100106.72
2022-12-31T09:19:54.633Z,100105.47
2022-12-31T09:22:58.895Z,100099.38
2022-12-31T09:26:15.287Z,100093.69
2022-12-31T09:29:32.725Z,100104.16
2022-12-31T09:32:48.548Z,100108.53
2022-12-31T09:35:55.991Z,100108.44
2022-12-31T09:39:08.247Z,100113.47
2022-12-31T09:42:49.772Z,100110.50
2022-12-31T09:46:19.255Z,100115.97
2022-12-31T09:49:42.250Z,100119.44
2022-12-31T09:53:13.319Z,100128.22
2022-12-31T09:56:21.686Z,100141.44
2022-12-31T09:59:36.335Z,100131.13
2022-12-31T10:03:02.183Z,100132.78
2022-12-31T10:06:17.620Z,100138.03
2022-12-31T10:09:44.015Z,100124.00
2022-12-31T10:13:42.945Z,100131.88
2022-12-31T10:17:02.244Z,100123.97
2022-12-31T10:20:35.938Z,100120.00
2022-12-31T10:23:55.501Z,100131.94
2022-12-31T10:27:14.104Z,100118.38
2022-12-31T10:30:21.482Z,100086.53
2022-12-31T10:33:42.611Z,100108.66
2022-12-31T10:36:55.579Z,100123.97
2022-12-31T10:40:12.911Z,100128.16
2022-12-31T10:43:34.897Z,100120.16
2022-12-31T10:47:12.258Z,100123.13
2022-12-31T10:50:53.392Z,100133.31
2022-12-31T10:54:26.246Z,100117.91
2022-12-31T10:58:07.133Z,100122.25
2022-12-31T11:01:19.592Z,100109.13
2022-12-31T11:05:07.023Z,100122.44
2022-12-31T11:08:37.053Z,100120.25
2022-12-31T11:11:46.925Z,100108.59
2022-12-31T11:15:13.682Z,100114.28
2022-12-31T11:18:28.553Z,100117.72
2022-12-31T11:21:59.537Z,100107.34
2022-12-31T11:25:23.817Z,100097.50
2022-12-31T11:29:05.398Z,100088.44
2022-12-31T11:32:20.129Z,100092.47
2022-12-31T11:35:39.050Z,100098.56
2022-12-31T11:38:46.447Z,100042.97
2022-12-31T11:41:55.293Z,100099.47
2022-12-31T11:45:03.389Z,100114.16
2022-12-31T11:48:32.413Z,100109.09
2022-12-31T11:52:02.821Z,100118.44
2022-12-31T11:55:23.316Z,100110.88
2022-12-31T11:58:28.779Z,100070.44
2022-12-31T12:01:34.371Z,100098.88
2022-12-31T12:04:37.146Z,100092.66
2022-12-31T12:07:41.183Z,100082.84
2022-12-31T12:10:47.707Z,100077.47
2022-12-31T12:13:50.413Z,100068.25
2022-12-31T12:17:00.815Z,100087.19
2022-12-31T12:20:17.320Z,100078.97
2022-12-31T12:23:26.505Z,100078.22
2022-12-31T12:26:37.021Z,100084.06
2022-12-31T12:29:41.289Z,100079.06
2022-12-31T12:32:52.696Z,100063.38
2022-12-31T12:36:06.636Z,100060.22
2022-12-31T12:39:21.646Z,100068.19
2022-12-31T12:42:24.435Z,100069.09
2022-12-31T12:45:30.158Z,100067.25
2022-12-31T12:48:38.295Z,100063.50
2022-12-31T12:52:05.941Z,100078.13
2022-12-31T12:55:20.630Z,100071.63
2022-12-31T12:58:51.804Z,100072.59
2022-12-31T13:02:03.286Z,100076.72
2022-12-31T13:05:27.715Z,100062.66
2022-12-31T13:09:07.740Z,100074.34
2022-12-31T13:12:19.684Z,100052.97
2022-12-31T13:15:35.075Z,100067.66
2022-12-31T13:18:52.066Z,100077.34
2022-12-31T13:22:02.529Z,100076.97
2022-12-31T13:25:20.308Z,100047.94
2022-12-31T13:28:25.867Z,100060.50
2022-12-31T13:31:33.247Z,100060.88
2022-12-31T13:34:41.801Z,100046.91
2022-12-31T13:37:46.515Z,100051.63
2022-12-31T13:40:54.648Z,100058.34
2022-12-31T13:44:06.221Z,100050.47
2022-12-31T13:47:16.096Z,100049.84
2022-12-31T13:50:23.152Z,100066.59
2022-12-31T13:53:33.251Z,100063.47
2022-12-31T13:56:40.994Z,100065.69
2022-12-31T13:59:51.803Z,100060.69
2022-12-31T14:03:07.441Z,100078.50
2022-12-31T14:06:15.239Z,100071.53
2022-12-31T14:09:23.015Z,100067.25
2022-12-31T14:12:38.143Z,100062.91
2022-12-31T14:15:49.522Z,100065.09
2022-12-31T14:19:02.104Z,100058.34
2022-12-31T14:22:14.239Z,100065.06
2022-12-31T14:25:24.962Z,100082.03
2022-12-31T14:28:33.872Z,100079.09
2022-12-31T14:31:57.848Z,100068.72
2022-12-31T14:35:18.205Z,100063.72
2022-12-31T14:38:45.002Z,100070.50
2022-12-31T14:42:03.811Z,100074.34
2022-12-31T14:45:20.803Z,100067.34
2022-12-31T14:48:47.655Z,100069.09
2022-12-31T14:51:51.576Z,100059.69
2022-12-31T14:55:35.167Z,100068.75
2022-12-31T14:58:40.364Z,100079.84
2022-12-31T15:01:46.261Z,100076.31
2022-12-31T15:04:50.387Z,100065.84
2022-12-31T15:08:18.643Z,100066.78
2022-12-31T15:11:46.075Z,100070.72
2022-12-31T15:15:10.824Z,100074.00
2022-12-31T15:18:44.162Z,100073.34
2022-12-31T15:22:04.533Z,100080.66
2022-12-31T15:25:22.116Z,100085.47
2022-12-31T15:28:33.841Z,100075.19
2022-12-31T15:31:45.210Z,100092.56
2022-12-31T15:34:47.924Z,100101.31
2022-12-31T15:38:01.884Z,100092.66
2022-12-31T15:41:17.254Z,100093.94
2022-12-31T15:44:29.771Z,100092.53
2022-12-31T15:47:37.782Z,100091.84
2022-12-31T15:50:42.529Z,100095.78
2022-12-31T15:53:52.962Z,100098.31
2022-12-31T15:56:55.900Z,100098.09
2022-12-31T16:00:00.295Z,100103.56
2022-12-31T16:03:04.911Z,100114.56
2022-12-31T16:06:12.473Z,100119.16
2022-12-31T16:09:24.910Z,100107.59
2022-12-31T16:12:33.702Z,100120.16
2022-12-31T16:15:40.070Z,100102.56
2022-12-31T16:18:44.710Z,100112.41
2022-12-31T16:21:47.633Z,100096.00
2022-12-31T16:25:29.089Z,100115.44
2022-12-31T16:28:20.928Z,100105.38
2022-12-31T16:31:26.017Z,100122.22
2022-12-31T16:34:29.424Z,100112.28
2022-12-31T16:37:32.108Z,100113.47
2022-12-31T16:40:36.578Z,100097.19
2022-12-31T16:43:40.938Z,100110.63
2022-12-31T16:46:43.662Z,100112.03
2022-12-31T16:49:48.689Z,100124.25
2022-12-31T16:53:00.811Z,100126.19
2022-12-31T16:56:21.781Z,100110.13
2022-12-31T16:59:33.472Z,100124.94
2022-12-31T17:02:40.076Z,100130.63
2022-12-31T17:05:58.710Z,100138.81
2022-12-31T17:09:20.648Z,100129.53
2022-12-31T17:12:25.693Z,100128.66
2022-12-31T17:15:38.901Z,100133.22
2022-12-31T17:18:46.227Z,100136.09
2022-12-31T17:21:51.892Z,100134.34
2022-12-31T17:25:03.246Z,100127.78
2022-12-31T17:28:20.234Z,100128.38
2022-12-31T17:31:29.164Z,100143.53
2022-12-31T17:34:34.818Z,100131.34
2022-12-31T17:37:42.796Z,100138.75
2022-12-31T17:40:51.225Z,100135.94
2022-12-31T17:43:57.676Z,100139.53
2022-12-31T17:47:00.367Z,100135.94
2022-12-31T17:50:10.686Z,100130.16
2022-12-31T17:53:13.840Z,100132.22
2022-12-31T17:56:18.533Z,100144.03
2022-12-31T17:59:29.526Z,100131.13
2022-12-31T18:02:32.382Z,100142.25
2022-12-31T18:05:35.539Z,100145.97
2022-12-31T18:08:40.505Z,100147.47
2022-12-31T18:11:43.999Z,100153.22
2022-12-31T18:14:48.028Z,100159.88
2022-12-31T18:18:05.291Z,100113.75
2022-12-31T18:21:10.070Z,100145.81
2022-12-31T18:24:30.170Z,100154.88
2022-12-31T18:27:34.996Z,100144.06
2022-12-31T18:30:47.004Z,100143.06
2022-12-31T18:33:51.304Z,100146.59
2022-12-31T18:36:54.396Z,100142.00
2022-12-31T18:39:57.040Z,100152.25
2022-12-31T18:43:07.292Z,100157.91
2022-12-31T18:46:14.036Z,100169.03
2022-12-31T18:49:16.748Z,100164.97
2022-12-31T18:52:21.627Z,100171.47
2022-12-31T18:55:37.544Z,100177.44
2022-12-31T18:58:40.845Z,100171.22
2022-12-31T19:01:44.921Z,100185.44
2022-12-31T19:04:50.302Z,100188.34
2022-12-31T19:07:53.105Z,100183.13
2022-12-31T19:10:55.807Z,100185.13
2022-12-31T19:13:58.613Z,100188.75
2022-12-31T19:20:07.848Z,100191.69
2022-12-31T19:23:16.765Z,100210.91
2022-12-31T19:26:21.862Z,100197.22
2022-12-31T19:29:26.124Z,100198.38
2022-12-31T19:32:30.630Z,100194.34
2022-12-31T19:35:35.611Z,100194.06
2022-12-31T19:38:47.089Z,100198.66
2022-12-31T19:41:58.411Z,100208.69
2022-12-31T19:45:02.287Z,100211.50
2022-12-31T19:48:06.678Z,100211.50
2022-12-31T19:51:11.869Z,100220.03
2022-12-31T19:54:14.820Z,100222.16
2022-12-31T19:57:17.593Z,100207.19
2022-12-31T20:00:21.281Z,100203.09
2022-12-31T20:03:33.949Z,100221.66
2022-12-31T20:06:36.669Z,100212.50
2022-12-31T20:09:39.356Z,100220.97
2022-12-31T20:12:44.516Z,100220.31
2022-12-31T20:15:56.647Z,100224.19
2022-12-31T20:19:03.353Z,100234.63
2022-12-31T20:22:06.101Z,100231.47
2022-12-31T20:25:13.937Z,100232.53
2022-12-31T20:28:18.720Z,100223.00
2022-12-31T20:31:26.810Z,100225.34
2022-12-31T20:34:39.514Z,100221.44
2022-12-31T20:37:42.205Z,100223.03
2022-12-31T20:40:47.105Z,100215.22
2022-12-31T20:44:15.333Z,100220.28
2022-12-31T20:47:25.194Z,100231.66
2022-12-31T20:50:45.105Z,100229.41
2022-12-31T20:53:49.949Z,100224.84
2022-12-31T20:56:52.645Z,100225.72
2022-12-31T21:00:01.880Z,100236.81
2022-12-31T21:03:14.585Z,100231.38
2022-12-31T21:06:28.723Z,100237.66
2022-12-31T21:09:38.602Z,100238.94
2022-12-31T21:12:44.402Z,100244.59
2022-12-31T21:15:48.589Z,100241.75
2022-12-31T21:18:51.281Z,100247.59
2022-12-31T21:22:07.050Z,100253.03
2022-12-31T21:25:11.463Z,100261.50
2022-12-31T21:28:17.230Z,100266.38
2022-12-31T21:31:23.486Z,100269.91
2022-12-31T21:38:30.053Z,100268.19
2022-12-31T21:41:50.998Z,100275.41
2022-12-31T21:44:53.858Z,100275.13
2022-12-31T21:48:22.140Z,100271.00
2022-12-31T21:51:27.077Z,100284.91
2022-12-31T21:54:49.149Z,100289.53
2022-12-31T21:58:24.800Z,100281.75
2022-12-31T22:01:38.386Z,100286.22
2022-12-31T22:05:01.996Z,100286.03
2022-12-31T22:08:06.675Z,100287.25
2022-12-31T22:11:11.977Z,100288.75
2022-12-31T22:14:14.647Z,100288.22
2022-12-31T22:17:17.307Z,100283.22
2022-12-31T22:20:29.557Z,100287.09
2022-12-31T22:23:33.238Z,100293.84
2022-12-31T22:26:44.557Z,100301.72
2022-12-31T22:29:49.073Z,100304.34
2022-12-31T22:32:54.031Z,100307.28
2022-12-31T22:36:02.238Z,100294.03
2022-12-31T22:39:05.202Z,100283.75
2022-12-31T22:42:09.265Z,100317.63
2022-12-31T22:45:12.535Z,100315.94
2022-12-31T22:48:15.209Z,100318.13
2022-12-31T22:51:18.844Z,100318.38
2022-12-31T22:54:21.625Z,100322.28
2022-12-31T22:57:25.910Z,100326.47
2022-12-31T23:00:39.471Z,100327.72
2022-12-31T23:03:43.128Z,100325.56
2022-12-31T23:06:46.058Z,100325.88
2022-12-31T23:10:06.135Z,100330.19
2022-12-31T23:13:27.597Z,100333.00
2022-12-31T23:16:48.820Z,100331.16
2022-12-31T23:20:09.088Z,100340.09
2022-12-31T23:23:16.155Z,100329.81
2022-12-31T23:26:18.811Z,100323.34
2022-12-31T23:29:22.900Z,100340.19
2022-12-31T23:32:25.612Z,100323.63
2022-12-31T23:35:28.448Z,100341.47
2022-12-31T23:38:31.189Z,100326.13
2022-12-31T23:41:34.356Z,100341.63
2022-12-31T23:44:38.428Z,100344.41
2022-12-31T23:47:41.121Z,100350.13
2022-12-31T23:50:49.211Z,100347.41
2022-12-31T23:54:09.309Z,100345.50
2022-12-31T23:57:12.075Z,100342.13
